sensor_id;sensor_type;location;lat;lon;timestamp;P1;durP1;ratioP1;P2;durP2;ratioP2
8480;SDS011;4277;51.354;6.740;2022-12-07T00:01:41;23.03;;;17.40;;
8480;SDS011;4277;51.354;6.740;2022-12-07T00:04:10;22.30;;;17.60;;
8480;SDS011;4277;51.354;6.740;2022-12-07T00:06:38;20.33;;;16.80;;
8480;SDS011;4277;51.354;6.740;2022-12-07T00:09:05;21.60;;;16.87;;
8480;SDS011;4277;51.354;6.740;2022-12-07T00:11:31;23.60;;;17.00;;
8480;SDS011;4277;51.354;6.740;2022-12-07T00:13:59;19.80;;;16.73;;
8480;SDS011;4277;51.354;6.740;2022-12-07T00:16:26;20.13;;;15.47;;
8480;SDS011;4277;51.354;6.740;2022-12-07T00:18:52;21.50;;;16.67;;
8480;SDS011;4277;51.354;6.740;2022-12-07T00:21:19;23.00;;;16.70;;
8480;SDS011;4277;51.354;6.740;2022-12-07T00:23:46;21.73;;;16.83;;
8480;SDS011;4277;51.354;6.740;2022-12-07T00:26:13;20.57;;;16.77;;
8480;SDS011;4277;51.354;6.740;2022-12-07T00:28:39;21.20;;;16.83;;
8480;SDS011;4277;51.354;6.740;2022-12-07T00:31:09;22.77;;;16.93;;
8480;SDS011;4277;51.354;6.740;2022-12-07T00:33:36;22.30;;;17.33;;
8480;SDS011;4277;51.354;6.740;2022-12-07T00:36:03;23.57;;;17.63;;
8480;SDS011;4277;51.354;6.740;2022-12-07T00:38:31;23.50;;;17.20;;
8480;SDS011;4277;51.354;6.740;2022-12-07T00:40:58;22.70;;;17.27;;
8480;SDS011;4277;51.354;6.740;2022-12-07T00:43:24;22.67;;;17.17;;
8480;SDS011;4277;51.354;6.740;2022-12-07T00:45:50;21.97;;;17.70;;
8480;SDS011;4277;51.354;6.740;2022-12-07T00:48:16;24.57;;;17.67;;
8480;SDS011;4277;51.354;6.740;2022-12-07T00:50:42;24.53;;;17.83;;
8480;SDS011;4277;51.354;6.740;2022-12-07T00:53:07;22.57;;;17.57;;
8480;SDS011;4277;51.354;6.740;2022-12-07T00:55:37;20.33;;;17.13;;
8480;SDS011;4277;51.354;6.740;2022-12-07T00:58:03;21.87;;;17.37;;
8480;SDS011;4277;51.354;6.740;2022-12-07T01:00:30;21.60;;;17.77;;
8480;SDS011;4277;51.354;6.740;2022-12-07T01:02:56;21.93;;;18.00;;
8480;SDS011;4277;51.354;6.740;2022-12-07T01:05:22;23.00;;;18.10;;
8480;SDS011;4277;51.354;6.740;2022-12-07T01:07:48;23.30;;;18.27;;
8480;SDS011;4277;51.354;6.740;2022-12-07T01:10:14;21.00;;;17.63;;
8480;SDS011;4277;51.354;6.740;2022-12-07T01:12:40;23.50;;;18.03;;
8480;SDS011;4277;51.354;6.740;2022-12-07T01:15:06;23.57;;;18.17;;
8480;SDS011;4277;51.354;6.740;2022-12-07T01:17:33;22.90;;;18.60;;
8480;SDS011;4277;51.354;6.740;2022-12-07T01:19:59;21.00;;;16.67;;
8480;SDS011;4277;51.354;6.740;2022-12-07T01:22:25;22.90;;;17.63;;
8480;SDS011;4277;51.354;6.740;2022-12-07T01:24:51;22.90;;;17.90;;
8480;SDS011;4277;51.354;6.740;2022-12-07T01:27:17;21.80;;;17.47;;
8480;SDS011;4277;51.354;6.740;2022-12-07T01:29:43;23.33;;;17.53;;
8480;SDS011;4277;51.354;6.740;2022-12-07T01:32:09;22.90;;;17.63;;
8480;SDS011;4277;51.354;6.740;2022-12-07T01:34:36;24.40;;;18.00;;
8480;SDS011;4277;51.354;6.740;2022-12-07T01:37:02;23.10;;;18.37;;
8480;SDS011;4277;51.354;6.740;2022-12-07T01:39:27;24.27;;;17.90;;
8480;SDS011;4277;51.354;6.740;2022-12-07T01:41:54;23.50;;;18.23;;
8480;SDS011;4277;51.354;6.740;2022-12-07T01:44:27;21.47;;;18.43;;
8480;SDS011;4277;51.354;6.740;2022-12-07T01:46:58;22.70;;;17.53;;
8480;SDS011;4277;51.354;6.740;2022-12-07T01:51:51;20.73;;;17.27;;
8480;SDS011;4277;51.354;6.740;2022-12-07T01:54:18;21.70;;;17.73;;
8480;SDS011;4277;51.354;6.740;2022-12-07T01:56:47;21.13;;;16.87;;
8480;SDS011;4277;51.354;6.740;2022-12-07T01:59:15;23.40;;;18.17;;
8480;SDS011;4277;51.354;6.740;2022-12-07T02:01:42;22.67;;;17.23;;
8480;SDS011;4277;51.354;6.740;2022-12-07T02:04:08;23.43;;;17.47;;
8480;SDS011;4277;51.354;6.740;2022-12-07T02:06:34;20.70;;;17.73;;
8480;SDS011;4277;51.354;6.740;2022-12-07T02:09:01;24.93;;;18.63;;
8480;SDS011;4277;51.354;6.740;2022-12-07T02:11:27;25.07;;;17.67;;
8480;SDS011;4277;51.354;6.740;2022-12-07T02:13:53;23.40;;;17.70;;
8480;SDS011;4277;51.354;6.740;2022-12-07T02:19:22;24.27;;;17.83;;
8480;SDS011;4277;51.354;6.740;2022-12-07T02:24:42;21.47;;;17.17;;
8480;SDS011;4277;51.354;6.740;2022-12-07T02:29:50;23.50;;;17.73;;
8480;SDS011;4277;51.354;6.740;2022-12-07T02:32:24;25.37;;;17.90;;
8480;SDS011;4277;51.354;6.740;2022-12-07T02:34:55;21.83;;;17.70;;
8480;SDS011;4277;51.354;6.740;2022-12-07T02:39:58;23.83;;;18.43;;
8480;SDS011;4277;51.354;6.740;2022-12-07T02:42:28;22.13;;;17.70;;
8480;SDS011;4277;51.354;6.740;2022-12-07T02:44:55;23.40;;;17.97;;
8480;SDS011;4277;51.354;6.740;2022-12-07T02:47:21;22.97;;;17.33;;
8480;SDS011;4277;51.354;6.740;2022-12-07T02:49:49;23.93;;;18.30;;
8480;SDS011;4277;51.354;6.740;2022-12-07T02:52:15;20.40;;;17.77;;
8480;SDS011;4277;51.354;6.740;2022-12-07T02:54:41;21.70;;;17.80;;
8480;SDS011;4277;51.354;6.740;2022-12-07T02:57:17;22.23;;;17.07;;
8480;SDS011;4277;51.354;6.740;2022-12-07T03:02:18;23.97;;;18.07;;
8480;SDS011;4277;51.354;6.740;2022-12-07T03:04:59;22.87;;;17.20;;
8480;SDS011;4277;51.354;6.740;2022-12-07T03:12:31;21.93;;;17.40;;
8480;SDS011;4277;51.354;6.740;2022-12-07T03:15:09;22.90;;;17.20;;
8480;SDS011;4277;51.354;6.740;2022-12-07T03:17:38;23.53;;;17.23;;
8480;SDS011;4277;51.354;6.740;2022-12-07T03:20:05;25.30;;;17.63;;
8480;SDS011;4277;51.354;6.740;2022-12-07T03:22:34;21.10;;;17.40;;
8480;SDS011;4277;51.354;6.740;2022-12-07T03:25:02;23.63;;;17.10;;
8480;SDS011;4277;51.354;6.740;2022-12-07T03:27:37;23.47;;;17.50;;
8480;SDS011;4277;51.354;6.740;2022-12-07T03:30:07;23.27;;;17.80;;
8480;SDS011;4277;51.354;6.740;2022-12-07T03:32:35;23.80;;;17.17;;
8480;SDS011;4277;51.354;6.740;2022-12-07T03:35:07;22.53;;;17.20;;
8480;SDS011;4277;51.354;6.740;2022-12-07T03:37:36;20.63;;;16.50;;
8480;SDS011;4277;51.354;6.740;2022-12-07T03:42:56;19.70;;;16.80;;
8480;SDS011;4277;51.354;6.740;2022-12-07T03:45:32;24.47;;;16.77;;
8480;SDS011;4277;51.354;6.740;2022-12-07T03:48:03;21.90;;;16.90;;
8480;SDS011;4277;51.354;6.740;2022-12-07T03:50:38;20.80;;;16.47;;
8480;SDS011;4277;51.354;6.740;2022-12-07T03:53:11;21.13;;;16.20;;
8480;SDS011;4277;51.354;6.740;2022-12-07T03:55:40;22.07;;;17.27;;
8480;SDS011;4277;51.354;6.740;2022-12-07T03:58:08;25.00;;;17.27;;
8480;SDS011;4277;51.354;6.740;2022-12-07T04:00:35;24.47;;;17.17;;
8480;SDS011;4277;51.354;6.740;2022-12-07T04:03:01;23.20;;;17.47;;
8480;SDS011;4277;51.354;6.740;2022-12-07T04:05:27;24.47;;;18.10;;
8480;SDS011;4277;51.354;6.740;2022-12-07T04:07:53;22.37;;;18.43;;
8480;SDS011;4277;51.354;6.740;2022-12-07T04:10:19;27.37;;;17.93;;
8480;SDS011;4277;51.354;6.740;2022-12-07T04:12:45;24.50;;;17.17;;
8480;SDS011;4277;51.354;6.740;2022-12-07T04:15:11;27.40;;;17.70;;
8480;SDS011;4277;51.354;6.740;2022-12-07T04:17:37;24.33;;;17.70;;
8480;SDS011;4277;51.354;6.740;2022-12-07T04:20:04;21.93;;;17.23;;
8480;SDS011;4277;51.354;6.740;2022-12-07T04:22:30;22.50;;;16.90;;
8480;SDS011;4277;51.354;6.740;2022-12-07T04:24:56;22.07;;;16.50;;
8480;SDS011;4277;51.354;6.740;2022-12-07T04:27:22;22.43;;;15.90;;
8480;SDS011;4277;51.354;6.740;2022-12-07T04:29:48;21.67;;;16.23;;
8480;SDS011;4277;51.354;6.740;2022-12-07T04:32:14;23.37;;;16.23;;
8480;SDS011;4277;51.354;6.740;2022-12-07T04:34:40;20.47;;;15.73;;
8480;SDS011;4277;51.354;6.740;2022-12-07T04:37:06;21.97;;;16.10;;
8480;SDS011;4277;51.354;6.740;2022-12-07T04:39:32;20.43;;;15.87;;
8480;SDS011;4277;51.354;6.740;2022-12-07T04:41:59;18.83;;;15.13;;
8480;SDS011;4277;51.354;6.740;2022-12-07T04:44:26;21.47;;;15.83;;
8480;SDS011;4277;51.354;6.740;2022-12-07T04:46:52;20.50;;;15.37;;
8480;SDS011;4277;51.354;6.740;2022-12-07T04:49:18;18.73;;;15.30;;
8480;SDS011;4277;51.354;6.740;2022-12-07T04:51:44;27.67;;;15.43;;
8480;SDS011;4277;51.354;6.740;2022-12-07T04:54:11;21.70;;;15.00;;
8480;SDS011;4277;51.354;6.740;2022-12-07T04:56:36;20.63;;;13.97;;
8480;SDS011;4277;51.354;6.740;2022-12-07T04:59:03;22.23;;;14.50;;
8480;SDS011;4277;51.354;6.740;2022-12-07T05:01:29;19.67;;;14.57;;
8480;SDS011;4277;51.354;6.740;2022-12-07T05:03:55;19.03;;;14.23;;
8480;SDS011;4277;51.354;6.740;2022-12-07T05:06:21;18.40;;;13.20;;
8480;SDS011;4277;51.354;6.740;2022-12-07T05:08:47;17.90;;;12.77;;
8480;SDS011;4277;51.354;6.740;2022-12-07T05:11:13;16.83;;;13.20;;
8480;SDS011;4277;51.354;6.740;2022-12-07T05:13:59;20.27;;;13.23;;
8480;SDS011;4277;51.354;6.740;2022-12-07T05:16:25;19.17;;;12.57;;
8480;SDS011;4277;51.354;6.740;2022-12-07T05:18:51;17.50;;;12.63;;
8480;SDS011;4277;51.354;6.740;2022-12-07T05:21:17;20.13;;;12.47;;
8480;SDS011;4277;51.354;6.740;2022-12-07T05:23:44;18.77;;;12.87;;
8480;SDS011;4277;51.354;6.740;2022-12-07T05:26:10;21.13;;;13.20;;
8480;SDS011;4277;51.354;6.740;2022-12-07T05:28:35;16.03;;;12.10;;
8480;SDS011;4277;51.354;6.740;2022-12-07T05:31:01;17.07;;;12.73;;
8480;SDS011;4277;51.354;6.740;2022-12-07T05:33:28;15.60;;;12.83;;
8480;SDS011;4277;51.354;6.740;2022-12-07T05:35:54;20.37;;;12.60;;
8480;SDS011;4277;51.354;6.740;2022-12-07T05:38:20;18.47;;;12.33;;
8480;SDS011;4277;51.354;6.740;2022-12-07T05:40:46;17.63;;;13.03;;
8480;SDS011;4277;51.354;6.740;2022-12-07T05:43:12;18.23;;;12.03;;
8480;SDS011;4277;51.354;6.740;2022-12-07T05:45:38;17.43;;;12.47;;
8480;SDS011;4277;51.354;6.740;2022-12-07T05:48:04;17.47;;;11.73;;
8480;SDS011;4277;51.354;6.740;2022-12-07T05:50:30;14.30;;;11.57;;
8480;SDS011;4277;51.354;6.740;2022-12-07T05:52:56;17.60;;;12.33;;
8480;SDS011;4277;51.354;6.740;2022-12-07T05:55:21;17.67;;;11.67;;
8480;SDS011;4277;51.354;6.740;2022-12-07T05:57:47;14.43;;;11.37;;
8480;SDS011;4277;51.354;6.740;2022-12-07T06:00:32;17.23;;;11.70;;
8480;SDS011;4277;51.354;6.740;2022-12-07T06:02:58;16.03;;;11.47;;
8480;SDS011;4277;51.354;6.740;2022-12-07T06:05:24;16.37;;;10.97;;
8480;SDS011;4277;51.354;6.740;2022-12-07T06:07:50;16.67;;;12.03;;
8480;SDS011;4277;51.354;6.740;2022-12-07T06:10:16;17.00;;;11.53;;
8480;SDS011;4277;51.354;6.740;2022-12-07T06:12:42;17.00;;;10.73;;
8480;SDS011;4277;51.354;6.740;2022-12-07T06:15:10;15.47;;;10.70;;
8480;SDS011;4277;51.354;6.740;2022-12-07T06:17:38;15.97;;;10.97;;
8480;SDS011;4277;51.354;6.740;2022-12-07T06:20:04;16.77;;;10.70;;
8480;SDS011;4277;51.354;6.740;2022-12-07T06:22:30;17.10;;;10.03;;
8480;SDS011;4277;51.354;6.740;2022-12-07T06:24:56;16.77;;;10.10;;
8480;SDS011;4277;51.354;6.740;2022-12-07T06:27:22;17.50;;;11.03;;
8480;SDS011;4277;51.354;6.740;2022-12-07T06:29:48;16.83;;;10.40;;
8480;SDS011;4277;51.354;6.740;2022-12-07T06:32:13;16.83;;;10.17;;
8480;SDS011;4277;51.354;6.740;2022-12-07T06:34:39;14.80;;;10.30;;
8480;SDS011;4277;51.354;6.740;2022-12-07T06:37:05;14.10;;;10.30;;
8480;SDS011;4277;51.354;6.740;2022-12-07T06:39:31;14.27;;;10.27;;
8480;SDS011;4277;51.354;6.740;2022-12-07T06:41:58;12.77;;;9.97;;
8480;SDS011;4277;51.354;6.740;2022-12-07T06:44:24;14.43;;;9.73;;
8480;SDS011;4277;51.354;6.740;2022-12-07T06:46:50;13.17;;;9.67;;
8480;SDS011;4277;51.354;6.740;2022-12-07T06:49:16;17.33;;;10.70;;
8480;SDS011;4277;51.354;6.740;2022-12-07T06:51:42;16.03;;;10.47;;
8480;SDS011;4277;51.354;6.740;2022-12-07T06:54:09;14.33;;;9.80;;
8480;SDS011;4277;51.354;6.740;2022-12-07T06:56:36;15.53;;;10.03;;
8480;SDS011;4277;51.354;6.740;2022-12-07T06:59:03;15.90;;;10.10;;
8480;SDS011;4277;51.354;6.740;2022-12-07T07:01:30;15.27;;;9.97;;
8480;SDS011;4277;51.354;6.740;2022-12-07T07:03:56;14.57;;;10.33;;
8480;SDS011;4277;51.354;6.740;2022-12-07T07:06:22;15.57;;;10.67;;
8480;SDS011;4277;51.354;6.740;2022-12-07T07:08:48;16.07;;;10.53;;
8480;SDS011;4277;51.354;6.740;2022-12-07T07:11:13;14.33;;;9.70;;
8480;SDS011;4277;51.354;6.740;2022-12-07T07:13:39;12.43;;;9.73;;
8480;SDS011;4277;51.354;6.740;2022-12-07T07:16:06;20.07;;;10.43;;
8480;SDS011;4277;51.354;6.740;2022-12-07T07:18:32;16.70;;;10.30;;
8480;SDS011;4277;51.354;6.740;2022-12-07T07:20:58;13.40;;;10.07;;
8480;SDS011;4277;51.354;6.740;2022-12-07T07:23:25;15.87;;;10.27;;
8480;SDS011;4277;51.354;6.740;2022-12-07T07:25:51;17.40;;;10.10;;
8480;SDS011;4277;51.354;6.740;2022-12-07T07:28:17;12.93;;;10.00;;
8480;SDS011;4277;51.354;6.740;2022-12-07T07:30:43;14.87;;;10.93;;
8480;SDS011;4277;51.354;6.740;2022-12-07T07:33:09;15.50;;;10.23;;
8480;SDS011;4277;51.354;6.740;2022-12-07T07:35:35;15.57;;;10.10;;
8480;SDS011;4277;51.354;6.740;2022-12-07T07:38:02;14.17;;;9.37;;
8480;SDS011;4277;51.354;6.740;2022-12-07T07:40:28;16.27;;;10.27;;
8480;SDS011;4277;51.354;6.740;2022-12-07T07:42:54;13.97;;;9.73;;
8480;SDS011;4277;51.354;6.740;2022-12-07T07:45:20;15.23;;;10.13;;
8480;SDS011;4277;51.354;6.740;2022-12-07T07:47:47;13.43;;;9.87;;
8480;SDS011;4277;51.354;6.740;2022-12-07T07:50:13;14.33;;;10.53;;
8480;SDS011;4277;51.354;6.740;2022-12-07T07:52:39;16.43;;;10.43;;
8480;SDS011;4277;51.354;6.740;2022-12-07T07:55:05;16.30;;;10.07;;
8480;SDS011;4277;51.354;6.740;2022-12-07T07:57:35;16.83;;;10.13;;
8480;SDS011;4277;51.354;6.740;2022-12-07T08:00:04;14.80;;;9.97;;
8480;SDS011;4277;51.354;6.740;2022-12-07T08:02:31;11.43;;;10.10;;
8480;SDS011;4277;51.354;6.740;2022-12-07T08:04:57;16.73;;;11.07;;
8480;SDS011;4277;51.354;6.740;2022-12-07T08:07:23;19.47;;;10.47;;
8480;SDS011;4277;51.354;6.740;2022-12-07T08:09:49;16.73;;;11.30;;
8480;SDS011;4277;51.354;6.740;2022-12-07T08:12:14;15.83;;;10.83;;
8480;SDS011;4277;51.354;6.740;2022-12-07T08:14:40;17.30;;;11.43;;
8480;SDS011;4277;51.354;6.740;2022-12-07T08:17:06;16.67;;;10.83;;
8480;SDS011;4277;51.354;6.740;2022-12-07T08:19:32;13.77;;;10.50;;
8480;SDS011;4277;51.354;6.740;2022-12-07T08:21:59;16.40;;;11.43;;
8480;SDS011;4277;51.354;6.740;2022-12-07T08:24:25;15.77;;;11.70;;
8480;SDS011;4277;51.354;6.740;2022-12-07T08:26:51;16.27;;;11.70;;
8480;SDS011;4277;51.354;6.740;2022-12-07T08:29:17;19.23;;;12.17;;
8480;SDS011;4277;51.354;6.740;2022-12-07T08:31:43;18.37;;;12.20;;
8480;SDS011;4277;51.354;6.740;2022-12-07T08:34:12;15.10;;;10.40;;
8480;SDS011;4277;51.354;6.740;2022-12-07T08:36:38;14.13;;;10.43;;
8480;SDS011;4277;51.354;6.740;2022-12-07T08:39:05;16.37;;;10.77;;
8480;SDS011;4277;51.354;6.740;2022-12-07T08:41:31;14.17;;;10.33;;
8480;SDS011;4277;51.354;6.740;2022-12-07T08:43:57;12.37;;;8.93;;
8480;SDS011;4277;51.354;6.740;2022-12-07T08:46:24;15.10;;;10.27;;
8480;SDS011;4277;51.354;6.740;2022-12-07T08:51:17;16.37;;;9.87;;
8480;SDS011;4277;51.354;6.740;2022-12-07T08:53:43;13.30;;;9.60;;
8480;SDS011;4277;51.354;6.740;2022-12-07T08:56:09;14.70;;;9.50;;
8480;SDS011;4277;51.354;6.740;2022-12-07T08:58:35;13.03;;;9.50;;
8480;SDS011;4277;51.354;6.740;2022-12-07T09:01:02;12.47;;;9.40;;
8480;SDS011;4277;51.354;6.740;2022-12-07T09:03:28;13.20;;;9.47;;
8480;SDS011;4277;51.354;6.740;2022-12-07T09:05:54;12.33;;;8.97;;
8480;SDS011;4277;51.354;6.740;2022-12-07T09:08:21;10.93;;;8.83;;
8480;SDS011;4277;51.354;6.740;2022-12-07T09:10:48;11.90;;;9.40;;
8480;SDS011;4277;51.354;6.740;2022-12-07T09:13:14;13.10;;;8.30;;
8480;SDS011;4277;51.354;6.740;2022-12-07T09:15:40;10.07;;;8.60;;
8480;SDS011;4277;51.354;6.740;2022-12-07T09:18:06;13.40;;;8.73;;
8480;SDS011;4277;51.354;6.740;2022-12-07T09:20:32;12.93;;;8.57;;
8480;SDS011;4277;51.354;6.740;2022-12-07T09:22:58;11.60;;;8.43;;
8480;SDS011;4277;51.354;6.740;2022-12-07T09:25:24;14.50;;;7.90;;
8480;SDS011;4277;51.354;6.740;2022-12-07T09:27:56;13.67;;;8.53;;
8480;SDS011;4277;51.354;6.740;2022-12-07T09:30:22;11.10;;;8.30;;
8480;SDS011;4277;51.354;6.740;2022-12-07T09:32:48;12.57;;;7.93;;
8480;SDS011;4277;51.354;6.740;2022-12-07T09:35:14;10.87;;;7.67;;
8480;SDS011;4277;51.354;6.740;2022-12-07T09:37:40;10.20;;;7.07;;
8480;SDS011;4277;51.354;6.740;2022-12-07T09:40:06;10.30;;;6.63;;
8480;SDS011;4277;51.354;6.740;2022-12-07T09:42:34;10.70;;;6.60;;
8480;SDS011;4277;51.354;6.740;2022-12-07T09:45:02;11.03;;;7.07;;
8480;SDS011;4277;51.354;6.740;2022-12-07T09:47:30;9.77;;;6.57;;
8480;SDS011;4277;51.354;6.740;2022-12-07T09:50:03;11.00;;;6.70;;
8480;SDS011;4277;51.354;6.740;2022-12-07T09:52:30;10.43;;;6.17;;
8480;SDS011;4277;51.354;6.740;2022-12-07T09:54:57;48.53;;;10.10;;
8480;SDS011;4277;51.354;6.740;2022-12-07T09:57:27;11.60;;;7.33;;
8480;SDS011;4277;51.354;6.740;2022-12-07T09:59:55;7.93;;;6.10;;
8480;SDS011;4277;51.354;6.740;2022-12-07T10:02:24;10.10;;;6.30;;
8480;SDS011;4277;51.354;6.740;2022-12-07T10:04:51;6.80;;;5.67;;
8480;SDS011;4277;51.354;6.740;2022-12-07T10:07:16;9.83;;;5.80;;
8480;SDS011;4277;51.354;6.740;2022-12-07T10:09:42;9.43;;;6.17;;
8480;SDS011;4277;51.354;6.740;2022-12-07T10:12:09;9.43;;;6.13;;
8480;SDS011;4277;51.354;6.740;2022-12-07T10:14:37;9.80;;;6.27;;
8480;SDS011;4277;51.354;6.740;2022-12-07T10:17:25;11.03;;;6.33;;
8480;SDS011;4277;51.354;6.740;2022-12-07T10:19:49;10.17;;;6.60;;
8480;SDS011;4277;51.354;6.740;2022-12-07T10:22:16;11.70;;;7.23;;
8480;SDS011;4277;51.354;6.740;2022-12-07T10:24:43;12.67;;;6.87;;
8480;SDS011;4277;51.354;6.740;2022-12-07T10:27:18;12.80;;;8.17;;
8480;SDS011;4277;51.354;6.740;2022-12-07T10:29:48;12.27;;;8.47;;
8480;SDS011;4277;51.354;6.740;2022-12-07T10:34:41;14.70;;;10.33;;
8480;SDS011;4277;51.354;6.740;2022-12-07T10:39:46;16.40;;;12.13;;
8480;SDS011;4277;51.354;6.740;2022-12-07T10:42:17;17.30;;;11.17;;
8480;SDS011;4277;51.354;6.740;2022-12-07T10:44:43;17.63;;;10.87;;
8480;SDS011;4277;51.354;6.740;2022-12-07T10:50:10;12.13;;;9.27;;
8480;SDS011;4277;51.354;6.740;2022-12-07T10:52:48;12.73;;;8.27;;
8480;SDS011;4277;51.354;6.740;2022-12-07T10:55:24;10.97;;;7.43;;
8480;SDS011;4277;51.354;6.740;2022-12-07T11:00:31;11.03;;;6.83;;
8480;SDS011;4277;51.354;6.740;2022-12-07T11:05:39;10.17;;;6.50;;
8480;SDS011;4277;51.354;6.740;2022-12-07T11:13:23;12.00;;;7.10;;
8480;SDS011;4277;51.354;6.740;2022-12-07T11:18:42;8.37;;;5.57;;
8480;SDS011;4277;51.354;6.740;2022-12-07T11:21:15;11.40;;;5.37;;
8480;SDS011;4277;51.354;6.740;2022-12-07T11:23:53;6.27;;;4.47;;
8480;SDS011;4277;51.354;6.740;2022-12-07T11:31:46;7.17;;;4.20;;
8480;SDS011;4277;51.354;6.740;2022-12-07T11:34:24;9.00;;;4.37;;
8480;SDS011;4277;51.354;6.740;2022-12-07T11:36:53;10.00;;;4.10;;
8480;SDS011;4277;51.354;6.740;2022-12-07T11:39:29;7.23;;;3.90;;
8480;SDS011;4277;51.354;6.740;2022-12-07T11:42:19;9.00;;;3.67;;
8480;SDS011;4277;51.354;6.740;2022-12-07T11:47:09;6.30;;;3.37;;
8480;SDS011;4277;51.354;6.740;2022-12-07T11:49:40;5.67;;;3.63;;
8480;SDS011;4277;51.354;6.740;2022-12-07T11:52:10;8.17;;;3.47;;
8480;SDS011;4277;51.354;6.740;2022-12-07T11:54:40;8.30;;;3.50;;
8480;SDS011;4277;51.354;6.740;2022-12-07T11:57:12;7.97;;;3.90;;
8480;SDS011;4277;51.354;6.740;2022-12-07T11:59:43;9.43;;;4.00;;
8480;SDS011;4277;51.354;6.740;2022-12-07T12:02:15;10.93;;;3.80;;
8480;SDS011;4277;51.354;6.740;2022-12-07T12:07:07;7.70;;;3.87;;
8480;SDS011;4277;51.354;6.740;2022-12-07T12:09:42;6.87;;;3.33;;
8480;SDS011;4277;51.354;6.740;2022-12-07T12:22:41;5.27;;;3.07;;
8480;SDS011;4277;51.354;6.740;2022-12-07T12:25:17;6.03;;;2.80;;
8480;SDS011;4277;51.354;6.740;2022-12-07T12:27:45;6.90;;;3.50;;
8480;SDS011;4277;51.354;6.740;2022-12-07T12:30:26;5.70;;;2.70;;
8480;SDS011;4277;51.354;6.740;2022-12-07T12:33:00;5.47;;;2.80;;
8480;SDS011;4277;51.354;6.740;2022-12-07T12:35:31;5.63;;;2.83;;
8480;SDS011;4277;51.354;6.740;2022-12-07T12:40:42;8.33;;;3.10;;
8480;SDS011;4277;51.354;6.740;2022-12-07T12:46:34;9.23;;;3.17;;
8480;SDS011;4277;51.354;6.740;2022-12-07T12:48:39;6.70;;;2.87;;
8480;SDS011;4277;51.354;6.740;2022-12-07T12:53:49;7.00;;;2.70;;
8480;SDS011;4277;51.354;6.740;2022-12-07T12:56:25;6.27;;;2.97;;
8480;SDS011;4277;51.354;6.740;2022-12-07T12:59:18;6.23;;;3.13;;
8480;SDS011;4277;51.354;6.740;2022-12-07T13:01:40;8.67;;;3.43;;
8480;SDS011;4277;51.354;6.740;2022-12-07T13:04:24;10.93;;;4.20;;
8480;SDS011;4277;51.354;6.740;2022-12-07T13:06:51;5.27;;;3.47;;
8480;SDS011;4277;51.354;6.740;2022-12-07T13:09:28;5.00;;;3.33;;
8480;SDS011;4277;51.354;6.740;2022-12-07T13:12:04;6.13;;;3.33;;
8480;SDS011;4277;51.354;6.740;2022-12-07T13:17:12;6.50;;;3.33;;
8480;SDS011;4277;51.354;6.740;2022-12-07T13:19:54;7.67;;;3.47;;
8480;SDS011;4277;51.354;6.740;2022-12-07T13:24:56;5.60;;;3.50;;
8480;SDS011;4277;51.354;6.740;2022-12-07T13:27:24;7.40;;;3.53;;
8480;SDS011;4277;51.354;6.740;2022-12-07T13:29:50;4.97;;;2.90;;
8480;SDS011;4277;51.354;6.740;2022-12-07T13:32:26;5.47;;;2.70;;
8480;SDS011;4277;51.354;6.740;2022-12-07T13:34:53;7.60;;;2.70;;
8480;SDS011;4277;51.354;6.740;2022-12-07T13:37:28;5.57;;;2.53;;
8480;SDS011;4277;51.354;6.740;2022-12-07T13:39:58;6.07;;;2.77;;
8480;SDS011;4277;51.354;6.740;2022-12-07T13:42:28;6.33;;;2.43;;
8480;SDS011;4277;51.354;6.740;2022-12-07T13:44:55;5.43;;;2.10;;
8480;SDS011;4277;51.354;6.740;2022-12-07T13:50:25;4.17;;;2.00;;
8480;SDS011;4277;51.354;6.740;2022-12-07T13:52:54;7.57;;;2.10;;
8480;SDS011;4277;51.354;6.740;2022-12-07T13:55:21;6.43;;;1.97;;
8480;SDS011;4277;51.354;6.740;2022-12-07T13:57:48;7.77;;;2.23;;
8480;SDS011;4277;51.354;6.740;2022-12-07T14:00:16;7.60;;;2.10;;
8480;SDS011;4277;51.354;6.740;2022-12-07T14:03:00;7.77;;;2.30;;
8480;SDS011;4277;51.354;6.740;2022-12-07T14:05:30;2.77;;;1.90;;
8480;SDS011;4277;51.354;6.740;2022-12-07T14:10:56;3.93;;;1.83;;
8480;SDS011;4277;51.354;6.740;2022-12-07T14:15:53;3.93;;;1.73;;
8480;SDS011;4277;51.354;6.740;2022-12-07T14:23:36;7.70;;;2.20;;
8480;SDS011;4277;51.354;6.740;2022-12-07T14:26:15;6.80;;;2.13;;
8480;SDS011;4277;51.354;6.740;2022-12-07T14:28:44;6.60;;;2.27;;
8480;SDS011;4277;51.354;6.740;2022-12-07T14:31:14;5.53;;;2.27;;
8480;SDS011;4277;51.354;6.740;2022-12-07T14:33:40;7.10;;;2.10;;
8480;SDS011;4277;51.354;6.740;2022-12-07T14:36:13;6.37;;;2.30;;
8480;SDS011;4277;51.354;6.740;2022-12-07T14:38:39;6.10;;;2.40;;
8480;SDS011;4277;51.354;6.740;2022-12-07T14:41:06;6.73;;;2.60;;
8480;SDS011;4277;51.354;6.740;2022-12-07T14:43:54;7.80;;;2.50;;
8480;SDS011;4277;51.354;6.740;2022-12-07T14:46:20;7.97;;;2.83;;
8480;SDS011;4277;51.354;6.740;2022-12-07T14:48:46;5.90;;;2.37;;
8480;SDS011;4277;51.354;6.740;2022-12-07T14:51:13;7.33;;;2.37;;
8480;SDS011;4277;51.354;6.740;2022-12-07T14:53:40;8.33;;;2.90;;
8480;SDS011;4277;51.354;6.740;2022-12-07T14:56:07;7.87;;;3.30;;
8480;SDS011;4277;51.354;6.740;2022-12-07T14:58:33;5.97;;;3.17;;
8480;SDS011;4277;51.354;6.740;2022-12-07T15:00:59;5.33;;;2.83;;
8480;SDS011;4277;51.354;6.740;2022-12-07T15:03:25;4.93;;;2.83;;
8480;SDS011;4277;51.354;6.740;2022-12-07T15:05:51;5.70;;;2.93;;
8480;SDS011;4277;51.354;6.740;2022-12-07T15:08:17;7.37;;;3.20;;
8480;SDS011;4277;51.354;6.740;2022-12-07T15:10:43;8.03;;;3.43;;
8480;SDS011;4277;51.354;6.740;2022-12-07T15:13:10;9.70;;;3.47;;
8480;SDS011;4277;51.354;6.740;2022-12-07T15:15:54;7.90;;;3.60;;
8480;SDS011;4277;51.354;6.740;2022-12-07T15:18:21;5.63;;;3.70;;
8480;SDS011;4277;51.354;6.740;2022-12-07T15:20:47;6.97;;;3.40;;
8480;SDS011;4277;51.354;6.740;2022-12-07T15:23:14;7.20;;;3.80;;
8480;SDS011;4277;51.354;6.740;2022-12-07T15:25:40;9.30;;;4.17;;
8480;SDS011;4277;51.354;6.740;2022-12-07T15:28:07;8.43;;;4.43;;
8480;SDS011;4277;51.354;6.740;2022-12-07T15:30:32;7.93;;;3.70;;
8480;SDS011;4277;51.354;6.740;2022-12-07T15:32:58;13.40;;;4.10;;
8480;SDS011;4277;51.354;6.740;2022-12-07T15:35:25;7.93;;;4.17;;
8480;SDS011;4277;51.354;6.740;2022-12-07T15:37:51;9.97;;;3.70;;
8480;SDS011;4277;51.354;6.740;2022-12-07T15:40:17;6.43;;;3.53;;
8480;SDS011;4277;51.354;6.740;2022-12-07T15:42:42;8.73;;;3.70;;
8480;SDS011;4277;51.354;6.740;2022-12-07T15:45:09;8.13;;;4.20;;
8480;SDS011;4277;51.354;6.740;2022-12-07T15:47:35;10.70;;;5.00;;
8480;SDS011;4277;51.354;6.740;2022-12-07T15:50:06;10.47;;;4.77;;
8480;SDS011;4277;51.354;6.740;2022-12-07T15:52:32;9.67;;;4.43;;
8480;SDS011;4277;51.354;6.740;2022-12-07T15:54:58;8.80;;;4.60;;
8480;SDS011;4277;51.354;6.740;2022-12-07T15:57:25;10.20;;;4.87;;
8480;SDS011;4277;51.354;6.740;2022-12-07T15:59:51;9.77;;;4.60;;
8480;SDS011;4277;51.354;6.740;2022-12-07T16:02:17;10.83;;;3.90;;
8480;SDS011;4277;51.354;6.740;2022-12-07T16:04:43;7.00;;;3.80;;
8480;SDS011;4277;51.354;6.740;2022-12-07T16:07:09;10.40;;;3.50;;
8480;SDS011;4277;51.354;6.740;2022-12-07T16:09:36;8.73;;;3.57;;
8480;SDS011;4277;51.354;6.740;2022-12-07T16:12:03;8.43;;;3.90;;
8480;SDS011;4277;51.354;6.740;2022-12-07T16:14:29;7.80;;;3.30;;
8480;SDS011;4277;51.354;6.740;2022-12-07T16:16:57;7.63;;;3.63;;
8480;SDS011;4277;51.354;6.740;2022-12-07T16:19:23;11.43;;;4.30;;
8480;SDS011;4277;51.354;6.740;2022-12-07T16:21:49;7.60;;;3.60;;
8480;SDS011;4277;51.354;6.740;2022-12-07T16:24:15;9.87;;;3.77;;
8480;SDS011;4277;51.354;6.740;2022-12-07T16:26:41;8.60;;;3.63;;
8480;SDS011;4277;51.354;6.740;2022-12-07T16:29:09;13.07;;;4.40;;
8480;SDS011;4277;51.354;6.740;2022-12-07T16:31:36;5.13;;;3.13;;
8480;SDS011;4277;51.354;6.740;2022-12-07T16:34:01;7.50;;;4.20;;
8480;SDS011;4277;51.354;6.740;2022-12-07T16:36:27;11.83;;;5.13;;
8480;SDS011;4277;51.354;6.740;2022-12-07T16:38:54;8.27;;;3.83;;